Time;durP1;ratioP1;P1;durP2;ratioP2;P2;SDS_P1;SDS_P2;PMS_P1;PMS_P2;Temp;Humidity;BMP_temperature;BMP_pressure;BME280_temperature;BME280_humidity;BME280_pressure;Samples;Min_cycle;Max_cycle;Signal;HPM_P1;HPM_P2
2021/12/22 00:02:15;;;;;;;115.40;51.10;;;;;;;-0.97;61.80;99913.09;217633;1299;139145;-56
2021/12/22 00:07:18;;;;;;;108.80;52.70;;;;;;;-1.00;61.81;99910.29;217636;1297;139296;-58
2021/12/22 00:12:21;;;;;;;108.70;49.20;;;;;;;-1.03;61.91;99911.35;217788;1297;138965;-56
2021/12/22 00:17:24;;;;;;;111.50;52.00;;;;;;;-1.04;61.95;99915.89;217694;1297;138910;-58
2021/12/22 00:22:27;;;;;;;119.00;51.90;;;;;;;-1.05;62.14;99918.50;217683;1297;139858;-58
2021/12/22 00:27:30;;;;;;;105.70;47.80;;;;;;;-1.07;62.07;99923.02;217740;1299;139254;-56
2021/12/22 00:32:35;;;;;;;119.30;52.20;;;;;;;-1.13;62.05;99926.52;217621;1300;138776;-58
2021/12/22 00:37:38;;;;;;;;;;;;;;;-1.17;62.24;99922.67;217683;1297;139233;-59
2021/12/22 00:42:41;;;;;;;109.60;48.40;;;;;;;-1.21;62.38;99927.38;218032;1299;125371;-58
2021/12/22 00:47:44;;;;;;;104.50;47.70;;;;;;;-1.25;62.44;99940.78;217748;1300;139253;-61
2021/12/22 00:52:48;;;;;;;99.90;47.80;;;;;;;-1.25;62.54;99947.06;217374;1299;138818;-55
2021/12/22 00:57:52;;;;;;;110.50;50.20;;;;;;;-1.24;62.54;99949.14;217852;1297;139608;-56
2021/12/22 01:02:56;;;;;;;108.80;51.20;;;;;;;-1.21;62.73;99952.45;217487;1298;139398;-57
2021/12/22 01:07:59;;;;;;;117.40;52.70;;;;;;;-1.15;62.84;99954.02;217523;1297;139180;-59
2021/12/22 01:13:05;;;;;;;122.20;52.80;;;;;;;-1.11;62.92;99956.46;217808;1297;139095;-60
2021/12/22 01:18:13;;;;;;;119.70;53.60;;;;;;;-1.07;62.83;99961.85;218019;1297;139371;-59
2021/12/22 01:23:19;;;;;;;119.90;51.30;;;;;;;-1.03;62.78;99957.51;218317;1296;140037;-60
2021/12/22 01:28:24;;;;;;;;;;;;;;;-0.99;62.73;99958.71;218344;1297;139464;-58
2021/12/22 01:33:27;;;;;;;115.30;52.80;;;;;;;-1.01;62.94;99963.08;218582;1297;127045;-58
2021/12/22 01:38:30;;;;;;;125.80;55.70;;;;;;;-1.01;62.90;99968.65;217593;1299;139486;-60
2021/12/22 01:43:33;;;;;;;131.80;58.20;;;;;;;-1.00;63.00;99973.69;217599;1299;138895;-58
2021/12/22 01:54:28;;;;;;;125.00;57.70;;;;;;;-0.95;63.20;99967.42;217925;1296;141013;-57
2021/12/22 01:59:31;;;;;;;137.80;60.80;;;;;;;-0.92;63.25;99963.92;217553;1299;138846;-59
2021/12/22 02:04:38;;;;;;;135.60;59.60;;;;;;;-0.94;63.21;99963.41;217459;1297;141203;-58
2021/12/22 02:10:03;;;;;;;135.00;60.40;;;;;;;-0.97;63.28;99962.89;217400;1299;138707;-58
2021/12/22 02:15:07;;;;;;;125.70;60.10;;;;;;;-1.00;63.37;99965.51;217761;1299;150960;-57
2021/12/22 02:20:11;;;;;;;138.30;62.00;;;;;;;-0.98;63.48;99967.77;218165;1298;139855;-56
2021/12/22 02:25:19;;;;;;;136.60;60.70;;;;;;;-0.98;63.62;99961.33;218372;1296;139615;-55
2021/12/22 02:30:28;;;;;;;134.90;56.70;;;;;;;-0.90;63.64;99958.19;217591;1299;140368;-56
2021/12/22 02:35:53;;;;;;;137.50;61.80;;;;;;;-0.81;63.59;99954.52;218157;1297;139510;-56
2021/12/22 02:40:56;;;;;;;134.90;60.10;;;;;;;-0.77;63.62;99952.26;217274;1297;139849;-58
2021/12/22 02:46:00;;;;;;;135.30;60.80;;;;;;;-0.74;63.73;99958.88;217666;1300;140094;-55
2021/12/22 02:51:03;;;;;;;133.60;60.40;;;;;;;-0.70;63.66;99953.98;217629;1297;139852;-56
2021/12/22 02:56:26;;;;;;;130.70;61.40;;;;;;;-0.67;63.66;99957.48;218157;1298;139915;-56
2021/12/22 03:11:56;;;;;;;131.70;59.20;;;;;;;-0.64;63.45;99957.80;217372;1299;139118;-57
2021/12/22 03:16:59;;;;;;;;;;;;;;;-0.67;63.54;99954.50;217576;1299;141703;-58
2021/12/22 03:22:07;;;;;;;127.50;56.50;;;;;;;-0.68;63.78;99962.16;218403;1297;125477;-57
2021/12/22 03:27:10;;;;;;;134.10;58.50;;;;;;;-0.73;63.64;99967.73;217610;1298;139659;-60
2021/12/22 03:32:13;;;;;;;136.70;57.60;;;;;;;-0.74;63.79;99965.84;217726;1297;140415;-62
2021/12/22 03:37:16;;;;;;;130.90;59.30;;;;;;;-0.76;63.89;99968.27;217891;1297;141295;-62
2021/12/22 03:42:19;;;;;;;128.50;59.40;;;;;;;-0.76;63.76;99971.94;218163;1297;139855;-61
2021/12/22 03:47:23;;;;;;;139.00;61.40;;;;;;;-0.76;63.76;99979.26;217902;1299;139588;-58
2021/12/22 03:52:26;;;;;;;135.40;60.60;;;;;;;-0.76;63.87;99980.99;218153;1297;139653;-60
2021/12/22 03:57:35;;;;;;;135.80;59.80;;;;;;;-0.80;63.79;99977.34;218103;1297;139209;-58
2021/12/22 04:02:38;;;;;;;131.80;56.30;;;;;;;-0.79;63.95;99981.52;217722;1297;140197;-57
2021/12/22 04:07:42;;;;;;;138.30;57.80;;;;;;;-0.76;64.01;99977.69;217815;1297;141221;-58
2021/12/22 04:12:53;;;;;;;133.80;60.20;;;;;;;-0.73;64.14;99972.45;218519;1296;139873;-57
2021/12/22 04:17:56;;;;;;;128.10;59.00;;;;;;;-0.77;64.18;99974.73;217801;1300;139294;-59
2021/12/22 04:23:00;;;;;;;132.10;60.50;;;;;;;-0.84;64.48;99973.52;218291;1297;139840;-60
2021/12/22 04:28:08;;;;;;;139.10;62.90;;;;;;;-0.88;64.54;99982.23;217352;1299;140754;-57
2021/12/22 04:33:11;;;;;;;137.50;62.20;;;;;;;-0.93;64.73;99982.94;218162;1299;141780;-57
2021/12/22 04:38:14;;;;;;;128.40;59.90;;;;;;;-0.95;64.83;99985.71;217826;1299;139372;-56
2021/12/22 04:43:18;;;;;;;131.80;62.20;;;;;;;-0.97;65.07;99990.23;217656;1297;139756;-57
2021/12/22 04:48:20;;;;;;;131.80;57.20;;;;;;;-0.98;65.12;99990.94;218020;1296;139480;-59
2021/12/22 04:53:27;;;;;;;124.80;53.80;;;;;;;-0.99;65.20;99993.54;217931;1296;140350;-58
2021/12/22 04:58:33;;;;;;;113.30;47.10;;;;;;;-0.97;65.20;99998.08;218044;1297;139882;-58
2021/12/22 05:03:41;;;;;;;208.20;108.70;;;;;;;-0.87;65.64;99996.15;217906;1299;139994;-57
2021/12/22 05:08:44;;;;;;;118.90;53.20;;;;;;;-0.70;65.64;99989.88;218592;1297;140627;-60
2021/12/22 05:13:47;;;;;;;106.40;49.40;;;;;;;-0.69;65.23;99992.84;217731;1299;139861;-61
2021/12/22 05:23:55;;;;;;;101.20;47.40;;;;;;;-0.76;65.31;99995.46;217707;1298;139210;-63
2021/12/22 05:28:58;;;;;;;99.50;46.90;;;;;;;-0.89;64.80;99998.95;217959;1297;139033;-58
2021/12/22 05:34:02;;;;;;;105.10;45.30;;;;;;;-1.02;64.80;100004.52;218078;1296;139308;-56
2021/12/22 05:39:06;;;;;;;109.00;50.60;;;;;;;-1.13;64.92;100004.16;218495;1296;141352;-58
2021/12/22 05:44:09;;;;;;;107.60;47.50;;;;;;;-1.10;65.56;100003.81;218485;1298;139671;-56
2021/12/22 05:49:12;;;;;;;97.10;45.40;;;;;;;-1.03;65.28;100007.13;218517;1297;140353;-63
2021/12/22 05:54:15;;;;;;;93.80;45.00;;;;;;;-1.06;65.08;100015.84;217814;1297;140363;-55
2021/12/22 05:59:18;;;;;;;93.00;44.30;;;;;;;-1.05;65.23;100017.23;217938;1300;139243;-62
2021/12/22 06:04:21;;;;;;;99.60;44.90;;;;;;;-1.06;65.11;100023.85;218030;1297;139565;-61
2021/12/22 06:09:24;;;;;;;94.90;45.70;;;;;;;-1.13;65.07;100030.27;217857;1296;139494;-57
2021/12/22 06:14:27;;;;;;;95.70;44.90;;;;;;;-1.14;65.21;100040.20;217834;1297;139819;-61
2021/12/22 06:19:30;;;;;;;103.40;45.50;;;;;;;-1.19;65.18;100053.42;218831;1298;140508;-61
2021/12/22 06:24:33;;;;;;;95.20;44.40;;;;;;;-1.23;65.26;100057.60;218017;1299;139742;-56
2021/12/22 06:29:36;;;;;;;95.40;43.70;;;;;;;-1.25;65.32;100065.43;217730;1294;139101;-58
2021/12/22 06:34:39;;;;;;;236.10;121.70;;;;;;;-1.30;65.36;100068.55;217678;1300;139646;-58
2021/12/22 06:39:42;;;;;;;104.20;45.60;;;;;;;-1.14;66.02;100078.33;218729;1296;140279;-59
2021/12/22 06:44:45;;;;;;;97.30;45.30;;;;;;;-1.04;65.50;100081.48;217830;1299;141198;-62
2021/12/22 06:49:48;;;;;;;101.60;46.50;;;;;;;-1.05;65.47;100085.50;217445;1299;140190;-59
2021/12/22 06:54:51;;;;;;;123.00;57.60;;;;;;;-1.01;65.81;100090.02;217722;1297;139628;-59
2021/12/22 06:59:56;;;;;;;104.30;46.00;;;;;;;-0.90;65.75;100099.96;217648;1300;139845;-56
2021/12/22 07:04:59;;;;;;;107.90;47.10;;;;;;;-0.96;65.38;100104.31;217621;1298;139234;-58
2021/12/22 07:10:11;;;;;;;103.40;48.20;;;;;;;-0.98;65.52;100106.92;218044;1296;140144;-60
2021/12/22 07:15:17;;;;;;;107.00;48.30;;;;;;;-0.99;65.45;100118.23;218084;1297;139661;-61
2021/12/22 07:20:20;;;;;;;109.10;49.30;;;;;;;-0.97;65.64;100126.95;217931;1295;140144;-56
2021/12/22 07:25:24;;;;;;;105.40;50.60;;;;;;;-0.89;65.70;100126.45;217810;1297;141197;-57
2021/12/22 07:30:27;;;;;;;106.90;48.80;;;;;;;-0.86;65.56;100131.67;217783;1296;140090;-59
2021/12/22 07:35:41;;;;;;;112.30;49.40;;;;;;;-0.85;65.45;100138.83;218353;1295;139211;-57
2021/12/22 07:40:44;;;;;;;106.00;48.30;;;;;;;-0.78;65.70;100141.28;217638;1297;140299;-57
2021/12/22 07:45:48;;;;;;;98.70;49.20;;;;;;;-0.69;65.57;100150.18;217673;1299;140146;-55
2021/12/22 07:50:51;;;;;;;106.50;50.00;;;;;;;-0.60;65.60;100152.27;218425;1297;139571;-60
2021/12/22 07:55:54;;;;;;;114.20;53.70;;;;;;;-0.55;65.47;100156.64;217395;1298;140108;-56
2021/12/22 08:00:58;;;;;;;113.70;49.00;;;;;;;-0.52;65.36;100156.12;217569;1300;139607;-58
2021/12/22 08:06:01;;;;;;;165.60;78.70;;;;;;;-0.52;65.56;100158.74;218125;1296;139786;-57
2021/12/22 08:11:04;;;;;;;113.80;53.80;;;;;;;-0.42;65.58;100160.48;218113;1297;139090;-58
2021/12/22 08:16:07;;;;;;;109.30;51.60;;;;;;;-0.40;65.38;100165.20;217673;1299;139106;-60
2021/12/22 08:21:11;;;;;;;110.70;50.80;;;;;;;-0.40;65.27;100161.70;217771;1298;139838;-59
2021/12/22 08:26:14;;;;;;;110.00;50.10;;;;;;;-0.36;65.36;100160.85;217585;1298;139982;-58
2021/12/22 08:31:17;;;;;;;111.20;51.10;;;;;;;-0.37;65.18;100162.92;218638;1297;139493;-57
2021/12/22 08:41:47;;;;;;;98.20;47.80;;;;;;;-0.30;65.24;100168.67;217843;1298;139246;-60
2021/12/22 08:46:51;;;;;;;;;;;;;;;-0.28;65.20;100174.43;217687;1299;139158;-61
2021/12/22 08:51:54;;;;;;;81.30;38.80;;;;;;;-0.25;65.13;100178.10;217940;1297;125235;-58
2021/12/22 08:56:57;;;;;;;73.90;36.90;;;;;;;-0.23;65.00;100181.94;217467;1299;140117;-60
2021/12/22 09:02:01;;;;;;;80.60;40.30;;;;;;;-0.20;64.90;100181.06;217284;1300;139274;-61
2021/12/22 09:07:05;;;;;;;72.40;35.30;;;;;;;-0.16;64.80;100178.27;217902;1298;138720;-57
2021/12/22 09:12:08;;;;;;;85.30;38.40;;;;;;;-0.16;64.55;100176.70;218500;1297;138951;-59
2021/12/22 09:17:11;;;;;;;78.00;37.40;;;;;;;-0.08;64.69;100179.66;218726;1299;139706;-59
2021/12/22 09:22:14;;;;;;;65.10;33.90;;;;;;;0.04;64.61;100177.21;217741;1297;139641;-58
2021/12/22 09:27:18;;;;;;;66.10;32.80;;;;;;;0.12;64.51;100183.65;218372;1296;139447;-58
2021/12/22 09:32:21;;;;;;;66.70;33.30;;;;;;;0.21;64.44;100190.63;217563;1299;138935;-56
2021/12/22 09:37:24;;;;;;;60.20;30.50;;;;;;;0.30;64.21;100191.65;218168;1296;141253;-57
2021/12/22 09:42:27;;;;;;;54.90;29.30;;;;;;;0.32;63.89;100190.79;217568;1299;139135;-56
2021/12/22 09:47:41;;;;;;;64.00;32.10;;;;;;;0.31;63.79;100187.12;218375;1295;138579;-60
2021/12/22 09:52:45;;;;;;;59.10;29.10;;;;;;;0.36;63.79;100189.73;217860;1300;139395;-58
2021/12/22 09:57:48;;;;;;;53.90;27.50;;;;;;;0.37;63.51;100182.21;217753;1299;138515;-58
2021/12/22 10:02:51;;;;;;;58.00;26.00;;;;;;;0.34;63.23;100180.66;217882;1299;138655;-59
2021/12/22 10:08:12;;;;;;;53.80;25.40;;;;;;;0.23;62.91;100181.02;217478;1299;139019;-58
2021/12/22 10:13:17;;;;;;;38.60;20.70;;;;;;;0.12;62.82;100181.92;218139;1297;139377;-57
2021/12/22 10:18:27;;;;;;;250.70;122.50;;;;;;;0.08;62.98;100187.15;218327;1297;139004;-57
2021/12/22 10:23:32;;;;;;;51.40;25.90;;;;;;;0.26;63.27;100178.05;217649;1299;139437;-57
2021/12/22 10:28:59;;;;;;;44.40;22.00;;;;;;;0.28;63.08;100175.77;218054;1298;138806;-57
2021/12/22 10:34:07;;;;;;;44.90;23.70;;;;;;;0.31;62.86;100178.75;218845;1297;139225;-56
2021/12/22 10:39:28;;;;;;;44.10;23.20;;;;;;;0.40;63.01;100171.57;217968;1297;138571;-62
2021/12/22 10:44:42;;;;;;;45.00;24.10;;;;;;;0.55;62.88;100165.40;217845;1300;139328;-58
2021/12/22 10:50:04;;;;;;;42.20;21.30;;;;;;;0.51;62.63;100161.41;217383;1299;139138;-62
2021/12/22 10:55:11;;;;;;;41.60;21.30;;;;;;;0.44;62.32;100158.46;219027;1297;139291;-61
2021/12/22 11:00:19;;;;;;;39.30;20.60;;;;;;;0.39;62.23;100162.15;217610;1299;139014;-57
2021/12/22 11:05:28;;;;;;;36.50;19.90;;;;;;;0.33;62.11;100161.29;217475;1299;138684;-60
2021/12/22 11:10:31;;;;;;;37.80;20.90;;;;;;;0.23;61.94;100163.57;217329;1300;141084;-61
2021/12/22 11:15:42;;;;;;;174.50;86.10;;;;;;;0.14;62.28;100162.36;217498;1299;138944;-58
2021/12/22 11:21:02;;;;;;;40.40;20.80;;;;;;;0.25;62.62;100158.16;217708;1299;138787;-57
2021/12/22 11:26:06;;;;;;;34.80;19.30;;;;;;;0.26;61.96;100155.72;218445;1297;139140;-57
2021/12/22 11:31:11;;;;;;;45.80;23.60;;;;;;;0.19;61.85;100148.23;217963;1299;139293;-63
2021/12/22 11:36:18;;;;;;;35.80;17.70;;;;;;;0.19;62.02;100150.84;217925;1298;138705;-57
2021/12/22 11:41:21;;;;;;;33.20;18.20;;;;;;;0.15;61.62;100147.55;217752;1299;138537;-60
2021/12/22 11:46:30;;;;;;;37.20;19.00;;;;;;;0.15;61.81;100143.34;217993;1297;141378;-58
2021/12/22 11:51:34;;;;;;;36.10;20.10;;;;;;;0.19;61.84;100137.23;217618;1301;138593;-60
2021/12/22 11:56:42;;;;;;;42.40;21.70;;;;;;;0.19;61.56;100134.62;218139;1299;139151;-58
2021/12/22 12:02:24;;;;;;;43.70;22.20;;;;;;;0.15;61.63;100132.53;217420;1300;139185;-59
2021/12/22 12:07:41;;;;;;;41.00;21.20;;;;;;;0.13;61.56;100130.61;217915;1299;138793;-58
2021/12/22 12:12:50;;;;;;;46.40;24.70;;;;;;;0.09;61.51;100126.96;218347;1297;138696;-58
2021/12/22 12:23:33;;;;;;;47.50;22.40;;;;;;;-0.00;61.52;100117.73;217517;1300;138372;-57
2021/12/22 12:28:47;;;;;;;48.90;22.50;;;;;;;-0.03;61.43;100119.31;217660;1300;138953;-57
2021/12/22 12:33:50;;;;;;;40.50;22.80;;;;;;;-0.03;61.46;100121.23;217380;1299;138921;-61
2021/12/22 12:38:55;;;;;;;43.20;22.40;;;;;;;-0.03;61.54;100124.02;217789;1297;139054;-60
2021/12/22 12:44:05;;;;;;;47.60;22.50;;;;;;;-0.04;61.54;100129.42;217911;1297;139131;-61
2021/12/22 12:49:08;;;;;;;41.70;20.50;;;;;;;-0.04;61.74;100129.77;217724;1299;139401;-60
2021/12/22 12:54:18;;;;;;;39.40;18.40;;;;;;;-0.01;61.62;100131.52;218626;1297;138630;-59
2021/12/22 12:59:27;;;;;;;38.70;20.60;;;;;;;0.05;61.93;100136.56;217627;1300;139026;-61
2021/12/22 13:04:34;;;;;;;30.70;16.30;;;;;;;0.20;61.76;100133.75;217875;1294;138987;-58
2021/12/22 13:09:40;;;;;;;32.10;16.20;;;;;;;0.20;61.59;100134.63;217541;1299;138930;-61
2021/12/22 13:20:12;;;;;;;33.60;15.50;;;;;;;0.18;61.39;100138.63;218075;1299;140008;-61
2021/12/22 13:25:24;;;;;;;23.40;12.40;;;;;;;0.12;61.15;100140.55;218131;1298;139396;-57
2021/12/22 13:30:31;;;;;;;18.30;10.30;;;;;;;0.07;61.14;100142.49;217585;1299;141795;-54
2021/12/22 13:35:47;;;;;;;19.40;9.10;;;;;;;0.03;60.94;100139.00;217778;1299;139000;-61
2021/12/22 13:40:52;;;;;;;13.90;8.30;;;;;;;0.00;60.74;100144.94;219022;1297;139513;-55
2021/12/22 13:46:09;;;;;;;;;;;;;;;-0.08;60.61;100145.13;217368;1299;138750;-63
2021/12/22 13:51:15;;;;;;;15.10;8.50;;;;;;;-0.18;60.57;100150.02;217795;1297;126640;-55
2021/12/22 13:56:19;;;;;;;15.60;9.00;;;;;;;-0.22;60.72;100153.33;217723;1299;139333;-59
2021/12/22 14:01:34;;;;;;;14.00;8.30;;;;;;;-0.22;60.68;100160.84;217630;1300;138783;-57
2021/12/22 14:07:06;;;;;;;15.20;8.60;;;;;;;-0.26;60.70;100168.16;217538;1299;138738;-60
2021/12/22 14:12:14;;;;;;;16.40;8.20;;;;;;;-0.28;60.47;100171.99;217637;1299;138765;-61
2021/12/22 14:17:35;;;;;;;19.30;8.20;;;;;;;-0.29;60.48;100166.41;217874;1299;139654;-58
2021/12/22 14:22:41;;;;;;;16.00;8.10;;;;;;;-0.26;60.27;100158.92;217657;1299;139429;-60
2021/12/22 14:27:52;;;;;;;13.40;8.10;;;;;;;-0.24;60.12;100158.04;217209;1299;139101;-63
2021/12/22 14:33:04;;;;;;;13.80;8.00;;;;;;;-0.19;59.82;100157.68;217745;1296;138947;-58
2021/12/22 14:38:08;;;;;;;16.20;8.90;;;;;;;-0.15;59.86;100154.38;217375;1300;139432;-60
2021/12/22 14:43:13;;;;;;;16.00;8.90;;;;;;;-0.14;59.64;100158.39;217471;1300;138827;-60
2021/12/22 14:48:21;;;;;;;19.70;10.00;;;;;;;-0.10;59.63;100161.70;218078;1297;139635;-59
2021/12/22 14:53:32;;;;;;;20.60;10.30;;;;;;;-0.11;59.59;100160.13;217429;1301;139937;-59
2021/12/22 14:58:37;;;;;;;19.50;8.60;;;;;;;-0.14;59.38;100164.33;217634;1301;138966;-58
2021/12/22 15:03:41;;;;;;;17.10;9.70;;;;;;;-0.26;59.40;100166.93;217811;1301;138733;-61
2021/12/22 15:08:44;;;;;;;18.60;10.30;;;;;;;-0.32;59.29;100163.63;217437;1301;139029;-60
2021/12/22 15:13:49;;;;;;;18.80;11.10;;;;;;;-0.36;59.32;100155.95;218166;1299;139139;-56
2021/12/22 15:18:53;;;;;;;18.70;10.90;;;;;;;-0.40;59.24;100151.42;217329;1301;139477;-58
2021/12/22 15:23:57;;;;;;;20.80;11.60;;;;;;;-0.43;59.30;100145.84;217317;1306;139960;-60
2021/12/22 15:29:00;;;;;;;20.10;11.10;;;;;;;-0.47;59.20;100142.88;217739;1300;139247;-58
2021/12/22 15:34:03;;;;;;;20.40;11.50;;;;;;;-0.47;59.21;100141.48;217659;1296;175764;-55
2021/12/22 15:39:06;;;;;;;21.80;11.50;;;;;;;-0.44;59.40;100146.02;218222;1297;140442;-59
2021/12/22 15:44:10;;;;;;;19.90;11.70;;;;;;;-0.43;59.37;100149.33;217845;1301;139533;-57
2021/12/22 15:49:15;;;;;;;21.30;12.20;;;;;;;-0.40;59.41;100155.08;217974;1299;139263;-58
2021/12/22 15:54:18;;;;;;;20.80;11.40;;;;;;;-0.36;59.52;100151.08;217633;1300;139028;-58
2021/12/22 15:59:21;;;;;;;21.00;12.80;;;;;;;-0.33;59.50;100147.92;217521;1300;139714;-57
2021/12/22 16:04:24;;;;;;;25.90;14.00;;;;;;;-0.34;59.58;100145.66;218215;1297;138924;-64
2021/12/22 16:09:27;;;;;;;127.30;72.80;;;;;;;-0.36;59.85;100150.20;217668;1299;139094;-57
2021/12/22 16:14:30;;;;;;;24.70;15.00;;;;;;;-0.01;61.24;100150.88;217501;1297;141603;-61
2021/12/22 16:19:33;;;;;;;27.40;14.00;;;;;;;0.09;60.07;100156.96;217801;1300;139125;-55
2021/12/22 16:24:36;;;;;;;23.80;13.20;;;;;;;0.01;59.67;100166.41;217641;1299;138893;-56
2021/12/22 16:29:40;;;;;;;24.90;12.80;;;;;;;-0.09;59.66;100164.49;217662;1297;138843;-62
2021/12/22 16:34:43;;;;;;;24.60;14.00;;;;;;;-0.22;59.48;100160.31;217401;1297;140735;-59
2021/12/22 16:39:46;;;;;;;23.30;13.30;;;;;;;-0.37;59.49;100156.83;218191;1298;140164;-54
2021/12/22 16:44:50;;;;;;;27.50;14.30;;;;;;;-0.44;59.52;100162.40;217438;1297;139229;-58
2021/12/22 16:49:53;;;;;;;30.10;15.80;;;;;;;-0.50;59.57;100161.88;217494;1297;139383;-56
2021/12/22 16:54:56;;;;;;;44.00;22.10;;;;;;;-0.21;61.93;100152.62;217437;1297;138996;-66
2021/12/22 16:59:59;;;;;;;39.00;18.30;;;;;;;0.25;60.81;100156.23;218062;1299;140001;-59
2021/12/22 17:05:03;;;;;;;33.50;17.60;;;;;;;0.06;59.74;100150.70;218047;1297;139248;-56
2021/12/22 17:10:07;;;;;;;33.20;18.10;;;;;;;-0.14;59.46;100158.91;218580;1296;139276;-62
2021/12/22 17:15:14;;;;;;;50.10;28.80;;;;;;;-0.33;59.27;100159.27;218302;1297;139658;-61
2021/12/22 17:20:17;;;;;;;46.60;24.00;;;;;;;-0.08;62.39;100161.68;217714;1298;140655;-69
2021/12/22 17:25:20;;;;;;;38.90;20.20;;;;;;;0.38;61.10;100152.20;217563;1299;139105;-58
2021/12/22 17:30:27;;;;;;;42.20;21.10;;;;;;;0.20;59.73;100152.06;218247;1297;139111;-63
2021/12/22 17:35:31;;;;;;;44.00;23.20;;;;;;;0.00;59.50;100149.31;217528;1299;139087;-66
2021/12/22 17:40:34;;;;;;;42.40;21.70;;;;;;;-0.14;59.64;100147.92;218464;1293;139212;-67
2021/12/22 17:45:37;;;;;;;43.40;22.80;;;;;;;-0.25;59.67;100147.23;217402;1299;142056;-59
2021/12/22 17:50:41;;;;;;;45.40;22.80;;;;;;;-0.34;59.81;100145.84;218048;1296;138835;-61
2021/12/22 17:55:44;;;;;;;48.10;24.20;;;;;;;-0.38;59.88;100148.45;217365;1297;140937;-62
2021/12/22 18:00:49;;;;;;;45.70;23.80;;;;;;;-0.50;59.74;100136.61;217857;1297;138939;-60
2021/12/22 18:06:00;;;;;;;41.10;22.70;;;;;;;-0.60;59.86;100131.89;217607;1299;138484;-62
2021/12/22 18:11:03;;;;;;;42.60;23.00;;;;;;;-0.69;59.91;100137.28;218342;1297;139225;-61
2021/12/22 18:16:07;;;;;;;49.00;24.00;;;;;;;-0.78;60.05;100138.83;218667;1296;139455;-62
2021/12/22 18:21:10;;;;;;;42.60;23.20;;;;;;;-0.87;60.14;100136.20;218087;1299;138755;-62
2021/12/22 18:26:13;;;;;;;48.20;24.40;;;;;;;-1.01;60.25;100131.48;217804;1299;139208;-62
2021/12/22 18:31:16;;;;;;;44.80;24.00;;;;;;;-1.10;60.32;100137.02;218262;1297;139353;-62
2021/12/22 18:36:19;;;;;;;49.70;24.70;;;;;;;-1.21;60.42;100139.42;217970;1297;139432;-62
2021/12/22 18:41:25;;;;;;;351.60;221.50;;;;;;;-1.15;61.73;100137.02;218307;1297;138781;-63
2021/12/22 18:46:29;;;;;;;71.60;36.70;;;;;;;-0.77;62.23;100135.35;217663;1297;139103;-59
2021/12/22 18:51:32;;;;;;;55.10;28.10;;;;;;;-0.72;61.31;100133.27;217656;1299;139491;-58
2021/12/22 18:56:36;;;;;;;81.80;41.10;;;;;;;-0.69;61.67;100125.95;218270;1297;139365;-59
2021/12/22 19:01:39;;;;;;;62.00;28.90;;;;;;;-0.49;61.50;100120.39;217757;1297;138678;-57
2021/12/22 19:06:48;;;;;;;52.10;26.70;;;;;;;-0.60;60.84;100123.88;218172;1297;139519;-57
2021/12/22 19:11:52;;;;;;;59.90;31.10;;;;;;;-0.76;60.83;100125.08;217832;1297;139014;-60
2021/12/22 19:16:58;;;;;;;56.20;28.20;;;;;;;-0.86;60.96;100126.10;218156;1297;140152;-60
2021/12/22 19:22:00;;;;;;;58.30;28.90;;;;;;;-0.97;61.08;100126.08;218525;1297;139181;-63
2021/12/22 19:27:04;;;;;;;64.90;32.00;;;;;;;-1.04;61.17;100121.72;218272;1296;139851;-63
2021/12/22 19:32:07;;;;;;;71.60;33.30;;;;;;;-1.10;61.33;100121.86;218224;1297;139489;-61
2021/12/22 19:37:10;;;;;;;89.50;41.30;;;;;;;-1.15;61.39;100119.24;218302;1297;140268;-62
2021/12/22 19:42:13;;;;;;;84.30;41.10;;;;;;;-1.19;61.53;100115.59;218016;1296;139789;-62
2021/12/22 19:47:19;;;;;;;97.10;44.00;;;;;;;-1.25;61.49;100113.83;217646;1297;140397;-61
2021/12/22 19:52:22;;;;;;;103.30;47.50;;;;;;;-1.30;61.45;100109.64;218372;1297;138766;-61
2021/12/22 19:57:26;;;;;;;105.10;48.90;;;;;;;-1.41;61.30;100110.29;217836;1296;139578;-62
2021/12/22 20:02:29;;;;;;;109.70;49.80;;;;;;;-1.49;61.56;100113.23;217873;1297;139707;-59
2021/12/22 20:07:32;;;;;;;105.80;51.10;;;;;;;-1.56;61.43;100110.23;218190;1296;139292;-61
2021/12/22 20:12:35;;;;;;;110.80;52.40;;;;;;;-1.64;61.48;100107.05;219273;1296;139113;-61
2021/12/22 20:17:39;;;;;;;113.10;50.40;;;;;;;-1.71;61.65;100104.94;217795;1297;140796;-61
2021/12/22 20:22:42;;;;;;;109.90;51.40;;;;;;;-1.76;61.69;100108.05;218351;1297;139847;-62
2021/12/22 20:27:46;;;;;;;108.60;51.80;;;;;;;-1.79;61.70;100101.08;219183;1296;139176;-61
2021/12/22 20:32:52;;;;;;;112.10;54.20;;;;;;;-1.82;61.82;100095.16;218225;1296;151182;-60
2021/12/22 20:38:02;;;;;;;115.90;54.70;;;;;;;-1.87;61.74;100094.08;217741;1297;139857;-62
2021/12/22 20:43:07;;;;;;;114.10;54.20;;;;;;;-1.98;61.62;100097.69;217721;1296;139982;-63
2021/12/22 20:48:10;;;;;;;;;;;;;;;-1.99;61.89;100096.45;217970;1297;139212;-57
2021/12/22 20:53:13;;;;;;;129.60;57.00;;;;;;;-2.02;61.95;100094.52;218012;1297;125344;-57
2021/12/22 20:58:16;;;;;;;133.00;60.80;;;;;;;-2.05;62.05;100092.23;218534;1296;139352;-60
2021/12/22 21:03:21;;;;;;;134.90;62.90;;;;;;;-2.05;62.20;100087.20;218941;1296;139966;-61
2021/12/22 21:08:25;;;;;;;145.10;65.60;;;;;;;-2.04;62.17;100081.46;218222;1296;140036;-63
2021/12/22 21:13:29;;;;;;;138.60;64.00;;;;;;;-2.08;62.13;100079.36;218378;1297;139656;-60
2021/12/22 21:18:34;;;;;;;145.40;65.10;;;;;;;-2.13;62.00;100078.29;217775;1298;139285;-60
2021/12/22 21:23:38;;;;;;;136.80;63.40;;;;;;;-2.19;62.16;100073.90;218329;1296;139579;-58
2021/12/22 21:28:41;;;;;;;133.00;62.40;;;;;;;-2.23;62.28;100071.63;218362;1296;141925;-59
2021/12/22 21:33:44;;;;;;;136.70;62.90;;;;;;;-2.25;62.22;100067.61;217940;1297;139704;-59
2021/12/22 21:38:48;;;;;;;141.20;62.00;;;;;;;-2.26;62.43;100059.61;217784;1297;139478;-60
2021/12/22 21:43:51;;;;;;;154.10;69.00;;;;;;;-2.29;62.33;100060.64;217365;1301;139905;-59
2021/12/22 21:48:54;;;;;;;156.00;70.70;;;;;;;-2.28;62.47;100055.25;218000;1297;140832;-60
2021/12/22 21:53:57;;;;;;;167.80;72.70;;;;;;;-2.27;62.31;100054.05;217958;1297;139456;-62
2021/12/22 21:59:01;;;;;;;163.00;76.00;;;;;;;-2.28;62.37;100048.82;217689;1297;139808;-60
2021/12/22 22:04:05;;;;;;;173.50;75.20;;;;;;;-2.30;62.37;100043.44;218331;1297;144234;-60
2021/12/22 22:09:08;;;;;;;163.40;71.00;;;;;;;-2.26;62.36;100046.58;218107;1297;139741;-59
2021/12/22 22:14:13;;;;;;;164.10;72.50;;;;;;;-2.16;62.59;100042.98;218078;1297;140364;-58
2021/12/22 22:19:16;;;;;;;160.80;72.60;;;;;;;-2.09;62.35;100035.54;218109;1297;139031;-58
2021/12/22 22:24:20;;;;;;;166.80;75.80;;;;;;;-2.08;62.42;100025.11;218860;1297;140521;-58
2021/12/22 22:29:23;;;;;;;172.00;74.90;;;;;;;-2.13;62.14;100027.70;218120;1297;139536;-58
2021/12/22 22:34:26;;;;;;;162.00;75.50;;;;;;;-2.20;62.22;100023.84;218312;1297;140129;-59
2021/12/22 22:39:29;;;;;;;163.50;74.90;;;;;;;-2.25;62.31;100016.68;217774;1297;139146;-57
2021/12/22 22:44:32;;;;;;;168.30;73.20;;;;;;;-2.31;62.28;100018.91;217806;1297;140750;-58
2021/12/22 22:49:35;;;;;;;158.20;72.70;;;;;;;-2.39;62.39;100015.92;217798;1297;139788;-57
2021/12/22 22:54:38;;;;;;;165.40;74.60;;;;;;;-2.44;62.47;100014.14;217811;1297;140608;-56
2021/12/22 22:59:41;;;;;;;154.60;70.10;;;;;;;-2.47;62.59;100010.31;217457;1298;141526;-60
2021/12/22 23:04:44;;;;;;;153.90;69.50;;;;;;;-2.46;62.83;99999.89;218509;1296;139840;-60
2021/12/22 23:09:47;;;;;;;163.10;70.80;;;;;;;-2.47;62.81;99998.50;218259;1297;139471;-58
2021/12/22 23:14:50;;;;;;;156.20;69.00;;;;;;;-2.50;62.75;99995.88;217620;1298;139168;-58